Time;durP1;ratioP1;P1;durP2;ratioP2;P2;SDS_P1;SDS_P2;PMS_P1;PMS_P2;Temp;Humidity;BMP_temperature;BMP_pressure;BME280_temperature;BME280_humidity;BME280_pressure;Samples;Min_cycle;Max_cycle;Signal;HPM_P1;HPM_P2
2022/09/01 00:00:49;;;;;;;6.05;3.22;;;;;;;;;;4960935;28;20039;-69
2022/09/01 00:03:22;;;;;;;5.75;3.13;;;;;;;;;;4960239;28;20416;-69
2022/09/01 00:05:53;;;;;;;4.90;2.80;;;;;;;;;;4955229;28;20043;-68
2022/09/01 00:08:20;;;;;;;;;;;;;;;;;;4957528;28;20046;-69
2022/09/01 00:10:46;;;;;;;6.55;2.85;;;;;;;;;;4954369;28;19918;-69
2022/09/01 00:13:13;;;;;;;5.85;2.92;;;;;;;;;;4963583;28;20065;-69
2022/09/01 00:15:40;;;;;;;6.15;3.25;;;;;;;;;;4971937;28;20038;-69
2022/09/01 00:18:06;;;;;;;5.13;3.28;;;;;;;;;;4972370;28;21814;-69
2022/09/01 00:20:33;;;;;;;5.55;3.15;;;;;;;;;;4971260;28;20058;-68
2022/09/01 00:23:00;;;;;;;6.18;3.20;;;;;;;;;;4959065;28;20102;-69
2022/09/01 00:25:27;;;;;;;6.18;2.90;;;;;;;;;;4959370;28;20050;-68
2022/09/01 00:27:58;;;;;;;4.88;3.03;;;;;;;;;;4952516;28;20484;-68
2022/09/01 00:30:25;;;;;;;5.40;3.20;;;;;;;;;;4952153;28;20096;-69
2022/09/01 00:32:51;;;;;;;5.05;2.97;;;;;;;;;;4950864;28;20042;-68
2022/09/01 00:35:18;;;;;;;6.65;3.00;;;;;;;;;;4962584;28;20859;-68
2022/09/01 00:37:45;;;;;;;6.40;3.03;;;;;;;;;;4987619;28;20042;-68
2022/09/01 00:40:13;;;;;;;6.57;3.10;;;;;;;;;;4959390;28;20177;-68
2022/09/01 00:42:40;;;;;;;5.97;3.05;;;;;;;;;;4955457;28;20564;-69
2022/09/01 00:45:09;;;;;;;6.10;3.20;;;;;;;;;;4956066;28;20468;-68
2022/09/01 00:47:36;;;;;;;6.47;3.80;;;;;;;;;;4956329;28;20046;-68
2022/09/01 00:50:04;;;;;;;7.60;3.55;;;;;;;;;;4957379;28;20483;-69
2022/09/01 00:52:36;;;;;;;5.60;3.05;;;;;;;;;;4958734;28;20102;-69
2022/09/01 00:55:08;;;;;;;6.75;3.50;;;;;;;;;;4976226;28;20042;-69
2022/09/01 00:57:34;;;;;;;5.78;3.17;;;;;;;;;;4957474;28;20039;-69
2022/09/01 01:00:07;;;;;;;6.28;3.72;;;;;;;;;;4970310;28;20070;-69
2022/09/01 01:02:34;;;;;;;7.63;3.47;;;;;;;;;;4955192;28;20844;-69
2022/09/01 01:05:02;;;;;;;6.70;3.00;;;;;;;;;;4955498;28;20067;-68
2022/09/01 01:07:29;;;;;;;6.13;3.30;;;;;;;;;;4969722;28;20049;-68
2022/09/01 01:09:56;;;;;;;6.88;3.47;;;;;;;;;;4984781;28;20039;-68
2022/09/01 01:12:26;;;;;;;7.43;3.40;;;;;;;;;;4953534;28;21116;-68
2022/09/01 01:14:53;;;;;;;8.48;3.28;;;;;;;;;;4990150;28;20042;-69
2022/09/01 01:17:21;;;;;;;5.68;2.90;;;;;;;;;;4974390;28;20042;-68
2022/09/01 01:23:07;;;;;;;5.35;3.20;;;;;;;;;;4963173;28;20048;-68
2022/09/01 01:25:39;;;;;;;8.48;3.40;;;;;;;;;;4953589;28;20162;-68
2022/09/01 01:28:18;;;;;;;6.78;3.45;;;;;;;;;;4953793;28;20034;-69
2022/09/01 01:30:52;;;;;;;6.35;2.90;;;;;;;;;;4952249;28;20113;-66
2022/09/01 01:33:21;;;;;;;7.30;2.95;;;;;;;;;;4955558;28;20509;-69
2022/09/01 01:35:49;;;;;;;7.68;3.17;;;;;;;;;;4962378;28;20130;-66
2022/09/01 01:38:16;;;;;;;6.53;3.22;;;;;;;;;;4970894;28;20043;-66
2022/09/01 01:40:43;;;;;;;9.85;3.70;;;;;;;;;;4954605;28;20053;-68
2022/09/01 01:43:11;;;;;;;5.80;3.30;;;;;;;;;;4969374;28;20119;-68
2022/09/01 01:45:37;;;;;;;7.85;3.50;;;;;;;;;;4962238;28;20149;-65
2022/09/01 01:48:07;;;;;;;9.52;3.42;;;;;;;;;;4954965;28;20046;-65
2022/09/01 01:50:34;;;;;;;7.22;3.55;;;;;;;;;;4956608;28;20088;-65
2022/09/01 01:53:02;;;;;;;7.28;3.85;;;;;;;;;;4987324;28;20492;-66
2022/09/01 01:55:29;;;;;;;6.05;3.35;;;;;;;;;;4955133;28;20547;-64
2022/09/01 01:57:57;;;;;;;7.32;3.67;;;;;;;;;;4974250;28;20045;-64
2022/09/01 02:00:28;;;;;;;8.32;3.92;;;;;;;;;;4957075;28;20058;-64
2022/09/01 02:02:55;;;;;;;10.10;3.40;;;;;;;;;;4954638;28;20054;-64
2022/09/01 02:05:27;;;;;;;12.27;3.67;;;;;;;;;;4954595;28;20105;-64
2022/09/01 02:07:55;;;;;;;6.95;3.42;;;;;;;;;;4969747;28;20035;-64
2022/09/01 02:10:22;;;;;;;8.90;3.50;;;;;;;;;;4963917;28;20035;-64
2022/09/01 02:12:49;;;;;;;5.75;3.45;;;;;;;;;;4960441;28;20405;-64
2022/09/01 02:15:16;;;;;;;8.77;3.30;;;;;;;;;;4953684;28;20058;-62
2022/09/01 02:17:43;;;;;;;8.35;3.35;;;;;;;;;;4952767;28;20058;-63
2022/09/01 02:20:10;;;;;;;9.60;3.72;;;;;;;;;;4953235;28;20191;-63
2022/09/01 02:22:38;;;;;;;7.80;4.57;;;;;;;;;;4951915;28;20486;-64
2022/09/01 02:25:05;;;;;;;5.88;3.47;;;;;;;;;;4952922;28;20057;-64
2022/09/01 02:27:35;;;;;;;7.03;3.70;;;;;;;;;;4961433;28;20548;-64
2022/09/01 02:30:05;;;;;;;10.10;3.83;;;;;;;;;;4954617;28;20742;-64
2022/09/01 02:32:32;;;;;;;8.25;3.95;;;;;;;;;;4954691;28;20042;-64
2022/09/01 02:35:00;;;;;;;6.72;3.78;;;;;;;;;;4957196;28;20038;-65
2022/09/01 02:37:27;;;;;;;6.97;3.65;;;;;;;;;;4957384;28;20053;-65
2022/09/01 02:44:13;;;;;;;6.95;3.90;;;;;;;;;;5075929;27;20425;-65
2022/09/01 02:46:43;;;;;;;8.98;4.32;;;;;;;;;;5057260;28;20047;-66
2022/09/01 02:49:14;;;;;;;9.65;4.20;;;;;;;;;;5067116;28;20496;-69
2022/09/01 02:51:44;;;;;;;46.13;28.38;;;;;;;;;;5076038;28;20044;-69
2022/09/01 02:54:15;;;;;;;10.90;6.15;;;;;;;;;;5077178;27;20040;-69
2022/09/01 02:56:42;;;;;;;7.90;5.10;;;;;;;;;;5075617;28;20047;-70
2022/09/01 02:59:11;;;;;;;11.93;5.00;;;;;;;;;;5075558;27;20040;-69
2022/09/01 03:01:38;;;;;;;9.60;4.45;;;;;;;;;;5074299;28;20040;-69
2022/09/01 03:04:08;;;;;;;10.35;4.47;;;;;;;;;;5075401;28;20369;-69
2022/09/01 03:06:36;;;;;;;9.70;4.13;;;;;;;;;;5074454;28;20207;-68
2022/09/01 03:09:05;;;;;;;8.50;4.70;;;;;;;;;;5075228;27;20063;-67
2022/09/01 03:11:36;;;;;;;9.65;4.10;;;;;;;;;;5073720;28;20125;-68
2022/09/01 03:14:02;;;;;;;9.38;4.18;;;;;;;;;;5075033;27;20877;-68
2022/09/01 03:16:29;;;;;;;15.18;5.10;;;;;;;;;;5075665;28;20036;-67
2022/09/01 03:18:56;;;;;;;9.85;5.30;;;;;;;;;;5071213;28;20044;-68
2022/09/01 03:21:22;;;;;;;10.77;4.47;;;;;;;;;;5077353;28;20050;-68
2022/09/01 03:23:51;;;;;;;11.88;4.47;;;;;;;;;;5064366;27;20045;-67
2022/09/01 03:26:19;;;;;;;10.75;4.57;;;;;;;;;;5063628;28;20217;-67
2022/09/01 03:28:46;;;;;;;7.40;4.00;;;;;;;;;;5090420;28;20032;-67
2022/09/01 03:31:13;;;;;;;8.68;4.10;;;;;;;;;;5069550;28;20040;-67
2022/09/01 03:33:40;;;;;;;10.38;4.07;;;;;;;;;;5069894;27;20072;-67
2022/09/01 03:36:07;;;;;;;9.20;4.32;;;;;;;;;;5055029;28;20040;-67
2022/09/01 03:38:35;;;;;;;6.95;3.90;;;;;;;;;;5053502;27;20043;-67
2022/09/01 03:41:07;;;;;;;10.55;4.22;;;;;;;;;;5053912;28;20044;-66
2022/09/01 03:43:34;;;;;;;7.38;4.47;;;;;;;;;;5052402;27;20452;-67
2022/09/01 03:46:01;;;;;;;9.07;3.95;;;;;;;;;;5054666;28;20071;-68
2022/09/01 03:48:28;;;;;;;11.15;4.30;;;;;;;;;;5053626;27;21662;-67
2022/09/01 03:51:01;;;;;;;10.10;4.53;;;;;;;;;;5054376;28;20600;-68
2022/09/01 03:53:28;;;;;;;;;;;;;;;;;;5051800;28;20056;-67
2022/09/01 03:55:56;;;;;;;8.88;3.92;;;;;;;;;;5039828;28;19929;-67
2022/09/01 03:58:23;;;;;;;9.15;4.32;;;;;;;;;;5039062;28;20128;-68
2022/09/01 04:00:54;;;;;;;5.82;3.63;;;;;;;;;;5041853;28;20044;-68
2022/09/01 04:03:22;;;;;;;7.18;4.00;;;;;;;;;;5018520;28;20164;-68
2022/09/01 04:05:50;;;;;;;8.70;4.13;;;;;;;;;;5064392;28;20040;-67
2022/09/01 04:08:17;;;;;;;8.38;4.03;;;;;;;;;;5063683;28;20083;-68
2022/09/01 04:10:48;;;;;;;8.90;4.13;;;;;;;;;;5051799;28;20037;-67
2022/09/01 04:13:25;;;;;;;6.95;4.00;;;;;;;;;;5041100;28;20047;-66
2022/09/01 04:15:53;;;;;;;18.23;4.63;;;;;;;;;;5058530;28;20052;-66
2022/09/01 04:18:20;;;;;;;7.53;3.92;;;;;;;;;;5044252;28;20041;-67
2022/09/01 04:20:48;;;;;;;13.38;3.90;;;;;;;;;;5053895;28;20032;-66
2022/09/01 04:23:19;;;;;;;8.38;4.10;;;;;;;;;;5061339;28;20627;-67
2022/09/01 04:25:50;;;;;;;6.38;3.70;;;;;;;;;;5050767;28;20048;-67
2022/09/01 04:28:25;;;;;;;7.13;3.90;;;;;;;;;;5059316;28;20036;-66
2022/09/01 04:30:54;;;;;;;8.77;3.95;;;;;;;;;;5036314;28;20128;-66
2022/09/01 04:33:22;;;;;;;9.85;4.60;;;;;;;;;;5053357;28;20131;-66
2022/09/01 04:35:55;;;;;;;7.90;3.75;;;;;;;;;;5046190;28;20055;-67
2022/09/01 04:38:23;;;;;;;13.15;4.80;;;;;;;;;;5041251;28;20040;-67
2022/09/01 04:40:50;;;;;;;6.82;3.90;;;;;;;;;;5060498;28;20051;-68
2022/09/01 04:43:17;;;;;;;6.70;3.95;;;;;;;;;;5059045;28;20135;-67
2022/09/01 04:45:47;;;;;;;7.80;4.05;;;;;;;;;;5059213;28;20048;-67
2022/09/01 04:48:14;;;;;;;8.85;3.90;;;;;;;;;;5060287;27;20036;-68
2022/09/01 04:50:41;;;;;;;8.48;4.07;;;;;;;;;;5058391;28;20117;-68
2022/09/01 04:53:10;;;;;;;7.07;3.88;;;;;;;;;;5060138;28;20208;-67
2022/09/01 04:55:43;;;;;;;11.00;3.95;;;;;;;;;;5051002;28;20041;-68
2022/09/01 04:58:12;;;;;;;6.40;3.78;;;;;;;;;;5060921;27;20105;-67
2022/09/01 05:00:40;;;;;;;5.93;3.80;;;;;;;;;;5043328;28;20040;-67
2022/09/01 05:03:08;;;;;;;7.22;4.00;;;;;;;;;;5062723;28;20079;-67
2022/09/01 05:05:41;;;;;;;8.25;3.88;;;;;;;;;;5059980;28;20043;-66
2022/09/01 05:08:13;;;;;;;10.35;3.90;;;;;;;;;;5042517;28;20044;-66
2022/09/01 05:10:44;;;;;;;7.90;3.80;;;;;;;;;;5053277;28;20090;-66
2022/09/01 05:13:11;;;;;;;6.57;3.95;;;;;;;;;;5052612;28;20676;-67
2022/09/01 05:15:45;;;;;;;7.25;3.90;;;;;;;;;;5042958;28;20041;-67
2022/09/01 05:18:27;;;;;;;9.32;3.92;;;;;;;;;;5065114;28;20037;-66
2022/09/01 05:20:54;;;;;;;6.05;3.78;;;;;;;;;;5046153;28;20042;-67
2022/09/01 05:23:22;;;;;;;10.52;4.22;;;;;;;;;;5057062;28;20060;-67
2022/09/01 05:25:50;;;;;;;7.72;3.92;;;;;;;;;;5062671;28;20270;-67
2022/09/01 05:28:17;;;;;;;6.30;3.58;;;;;;;;;;5062049;28;20045;-67
2022/09/01 05:30:45;;;;;;;6.05;3.53;;;;;;;;;;5061133;28;20116;-68
2022/09/01 05:33:15;;;;;;;6.20;3.90;;;;;;;;;;5061334;28;20037;-67
2022/09/01 05:35:53;;;;;;;5.80;3.53;;;;;;;;;;5060719;28;20032;-67
2022/09/01 05:38:20;;;;;;;5.95;3.85;;;;;;;;;;5061660;28;20032;-66
2022/09/01 05:40:55;;;;;;;6.97;3.72;;;;;;;;;;5059488;28;20036;-67
2022/09/01 05:43:22;;;;;;;7.13;3.88;;;;;;;;;;5054776;28;21596;-68
2022/09/01 05:45:49;;;;;;;9.75;3.67;;;;;;;;;;5065564;28;20039;-68
2022/09/01 05:48:20;;;;;;;9.60;3.80;;;;;;;;;;5063302;28;20090;-68
2022/09/01 05:50:48;;;;;;;10.02;4.03;;;;;;;;;;5040034;28;20079;-67
2022/09/01 05:53:16;;;;;;;6.10;3.67;;;;;;;;;;5059028;28;20063;-68
2022/09/01 05:55:45;;;;;;;5.25;3.30;;;;;;;;;;5058994;28;20251;-68
2022/09/01 05:58:13;;;;;;;6.05;3.67;;;;;;;;;;5060467;28;20048;-68
2022/09/01 06:00:41;;;;;;;6.90;4.00;;;;;;;;;;5060217;28;20043;-68
2022/09/01 06:03:09;;;;;;;5.75;3.50;;;;;;;;;;5060513;28;20052;-67
2022/09/01 06:05:36;;;;;;;6.50;3.70;;;;;;;;;;5057491;28;20124;-67
2022/09/01 06:08:04;;;;;;;7.15;3.92;;;;;;;;;;5051425;28;20450;-67
2022/09/01 06:10:32;;;;;;;7.15;3.72;;;;;;;;;;5047854;28;20029;-67
2022/09/01 06:13:01;;;;;;;6.63;4.15;;;;;;;;;;5057871;28;20107;-67
2022/09/01 06:15:31;;;;;;;11.25;4.30;;;;;;;;;;5058497;28;20396;-66
2022/09/01 06:17:57;;;;;;;9.35;4.32;;;;;;;;;;5051739;28;20029;-66
2022/09/01 06:20:25;;;;;;;6.03;3.70;;;;;;;;;;5045553;28;20187;-68
2022/09/01 06:22:52;;;;;;;6.53;4.13;;;;;;;;;;5059474;28;20129;-66
2022/09/01 06:25:19;;;;;;;7.10;3.35;;;;;;;;;;5060988;28;20063;-66
2022/09/01 06:27:46;;;;;;;8.32;4.05;;;;;;;;;;5059406;28;20573;-66
2022/09/01 06:30:16;;;;;;;7.93;3.78;;;;;;;;;;5068863;28;20048;-66
2022/09/01 06:32:43;;;;;;;6.30;3.65;;;;;;;;;;5071007;28;20112;-67
2022/09/01 06:35:10;;;;;;;6.75;3.80;;;;;;;;;;5052405;28;20099;-67
2022/09/01 06:37:38;;;;;;;11.82;4.15;;;;;;;;;;5032825;28;20073;-67
2022/09/01 06:40:06;;;;;;;7.07;3.83;;;;;;;;;;5035545;28;20049;-66
2022/09/01 06:42:34;;;;;;;6.47;3.35;;;;;;;;;;5035387;28;20057;-67
2022/09/01 06:45:01;;;;;;;7.07;3.60;;;;;;;;;;5037229;28;20048;-67
2022/09/01 06:47:27;;;;;;;6.28;3.22;;;;;;;;;;5036255;28;20041;-67
2022/09/01 06:49:57;;;;;;;6.47;3.60;;;;;;;;;;5037674;28;20044;-68
2022/09/01 06:52:24;;;;;;;11.40;3.83;;;;;;;;;;5035901;28;20274;-68
2022/09/01 06:54:52;;;;;;;7.00;3.72;;;;;;;;;;5037765;28;20068;-68
2022/09/01 06:57:21;;;;;;;5.70;3.60;;;;;;;;;;5035738;28;20045;-68
2022/09/01 06:59:49;;;;;;;6.55;3.50;;;;;;;;;;5037076;28;20500;-68
2022/09/01 07:02:17;;;;;;;7.32;3.90;;;;;;;;;;5036965;28;20080;-67
2022/09/01 07:04:44;;;;;;;8.50;3.53;;;;;;;;;;5025760;28;20450;-67
2022/09/01 07:07:12;;;;;;;10.40;3.75;;;;;;;;;;5037383;28;20041;-67
2022/09/01 07:09:39;;;;;;;7.28;3.55;;;;;;;;;;5037043;27;20033;-67
2022/09/01 07:12:06;;;;;;;9.48;3.95;;;;;;;;;;5035537;28;20040;-68
2022/09/01 07:14:32;;;;;;;5.95;3.95;;;;;;;;;;5036384;28;20080;-67
2022/09/01 07:16:59;;;;;;;6.50;3.90;;;;;;;;;;5038593;28;20049;-67
2022/09/01 07:19:25;;;;;;;6.75;3.97;;;;;;;;;;5037103;28;20037;-67
2022/09/01 07:21:52;;;;;;;6.47;3.55;;;;;;;;;;5036299;28;20500;-67
2022/09/01 07:24:19;;;;;;;7.35;3.70;;;;;;;;;;5039409;28;20048;-67
2022/09/01 07:26:49;;;;;;;6.18;3.58;;;;;;;;;;5050592;28;20048;-66
2022/09/01 07:29:20;;;;;;;7.32;3.90;;;;;;;;;;5044310;28;20064;-67
2022/09/01 07:31:48;;;;;;;8.63;4.10;;;;;;;;;;5048032;28;20050;-67
2022/09/01 07:34:15;;;;;;;7.90;4.57;;;;;;;;;;5056197;28;20401;-67
2022/09/01 07:36:43;;;;;;;7.50;3.92;;;;;;;;;;5052432;28;20060;-68
2022/09/01 07:39:10;;;;;;;6.63;3.85;;;;;;;;;;5043981;28;20086;-67
2022/09/01 07:41:40;;;;;;;6.70;3.50;;;;;;;;;;5043286;28;20040;-67
2022/09/01 07:44:09;;;;;;;6.45;4.00;;;;;;;;;;5060727;28;20596;-67
2022/09/01 07:46:35;;;;;;;7.32;4.00;;;;;;;;;;5060524;28;20085;-67
2022/09/01 07:49:02;;;;;;;7.63;4.43;;;;;;;;;;5061391;27;20036;-67
2022/09/01 07:51:30;;;;;;;7.53;3.88;;;;;;;;;;5060759;28;20044;-67
2022/09/01 07:53:59;;;;;;;8.55;3.97;;;;;;;;;;5049726;28;20090;-69
2022/09/01 07:56:27;;;;;;;6.70;4.15;;;;;;;;;;5054161;28;20045;-69
2022/09/01 07:58:54;;;;;;;6.95;3.85;;;;;;;;;;5052158;28;20405;-67
2022/09/01 08:01:22;;;;;;;7.00;4.38;;;;;;;;;;5048640;28;20126;-68
2022/09/01 08:03:51;;;;;;;6.70;4.07;;;;;;;;;;5065006;28;20052;-67
2022/09/01 08:06:19;;;;;;;7.95;4.35;;;;;;;;;;5063011;28;20101;-67
2022/09/01 08:08:46;;;;;;;11.57;4.38;;;;;;;;;;5079113;28;20119;-67
2022/09/01 08:11:21;;;;;;;7.00;4.03;;;;;;;;;;5056204;28;20063;-67
2022/09/01 08:13:48;;;;;;;8.65;4.20;;;;;;;;;;5052385;28;20075;-67
2022/09/01 08:16:15;;;;;;;14.70;4.20;;;;;;;;;;5043191;28;20039;-67
2022/09/01 08:18:43;;;;;;;7.63;4.43;;;;;;;;;;5064308;28;20040;-67
2022/09/01 08:21:11;;;;;;;13.38;4.28;;;;;;;;;;5064456;28;20408;-66
2022/09/01 08:23:37;;;;;;;13.40;4.40;;;;;;;;;;5063083;28;20091;-67
2022/09/01 08:26:05;;;;;;;11.20;4.30;;;;;;;;;;5063567;28;20068;-67
2022/09/01 08:28:33;;;;;;;11.80;4.45;;;;;;;;;;5063982;28;20048;-67
2022/09/01 08:31:00;;;;;;;8.20;4.22;;;;;;;;;;5063409;28;20516;-67
2022/09/01 08:33:26;;;;;;;9.52;3.95;;;;;;;;;;5062553;28;20090;-67
2022/09/01 08:35:56;;;;;;;9.00;4.00;;;;;;;;;;5043361;28;20052;-68
2022/09/01 08:38:22;;;;;;;8.13;4.50;;;;;;;;;;5050950;28;20141;-67
2022/09/01 08:40:53;;;;;;;5.80;3.40;;;;;;;;;;5057437;28;20060;-67
2022/09/01 08:43:30;;;;;;;8.70;3.95;;;;;;;;;;5046514;28;20049;-67
2022/09/01 08:46:03;;;;;;;12.05;4.82;;;;;;;;;;5061292;28;20036;-67
2022/09/01 08:48:36;;;;;;;10.88;3.70;;;;;;;;;;5059428;28;20036;-67
2022/09/01 08:51:02;;;;;;;;;;;;;;;;;;5061255;28;20040;-67
2022/09/01 08:53:32;;;;;;;7.63;4.10;;;;;;;;;;5051588;28;19970;-67
2022/09/01 08:55:59;;;;;;;10.45;4.72;;;;;;;;;;5040197;28;20060;-67
2022/09/01 08:58:29;;;;;;;10.63;4.40;;;;;;;;;;5048351;28;20064;-67
2022/09/01 09:00:58;;;;;;;9.27;3.92;;;;;;;;;;5038875;28;20040;-67
2022/09/01 09:03:43;;;;;;;6.35;3.80;;;;;;;;;;5061672;28;20056;-68
2022/09/01 09:06:17;;;;;;;6.22;3.78;;;;;;;;;;5065477;28;20044;-68
2022/09/01 09:08:46;;;;;;;6.68;3.55;;;;;;;;;;5055351;28;20040;-68
2022/09/01 09:11:32;;;;;;;7.25;4.00;;;;;;;;;;5060697;28;20514;-68
2022/09/01 09:14:10;;;;;;;8.20;3.92;;;;;;;;;;5041328;28;20041;-68
2022/09/01 09:16:47;;;;;;;6.00;3.83;;;;;;;;;;5058806;28;20473;-68
2022/09/01 09:19:25;;;;;;;8.75;4.28;;;;;;;;;;5060747;28;20044;-68
2022/09/01 09:21:53;;;;;;;7.03;3.78;;;;;;;;;;5053265;28;20489;-68
2022/09/01 09:24:26;;;;;;;9.50;4.30;;;;;;;;;;5062796;28;20053;-67
2022/09/01 09:26:54;;;;;;;9.20;4.30;;;;;;;;;;5063418;28;20052;-68
2022/09/01 09:29:21;;;;;;;7.97;4.35;;;;;;;;;;5055216;28;20052;-68
2022/09/01 09:31:49;;;;;;;7.00;4.18;;;;;;;;;;5049828;28;20037;-68
2022/09/01 09:34:31;;;;;;;8.50;4.32;;;;;;;;;;5041547;28;20087;-68
2022/09/01 09:37:00;;;;;;;8.97;4.00;;;;;;;;;;5053522;28;20662;-68
2022/09/01 09:39:27;;;;;;;8.30;4.10;;;;;;;;;;5045224;28;20384;-68
2022/09/01 09:42:07;;;;;;;8.68;3.75;;;;;;;;;;5054613;28;20086;-68
2022/09/01 09:44:41;;;;;;;6.60;3.65;;;;;;;;;;5054356;28;20613;-68
2022/09/01 09:47:09;;;;;;;5.93;3.53;;;;;;;;;;5055923;28;20048;-69
2022/09/01 09:49:36;;;;;;;5.82;3.70;;;;;;;;;;5057251;28;20044;-68
2022/09/01 09:52:03;;;;;;;8.75;3.72;;;;;;;;;;5058237;28;22091;-68
2022/09/01 09:54:34;;;;;;;7.38;3.70;;;;;;;;;;5051593;28;21712;-70
2022/09/01 09:57:13;;;;;;;8.18;3.30;;;;;;;;;;5059220;28;20575;-69
2022/09/01 09:59:45;;;;;;;5.60;3.40;;;;;;;;;;5067249;28;20155;-68
2022/09/01 10:02:31;;;;;;;7.57;3.53;;;;;;;;;;5068003;28;20040;-69
2022/09/01 10:04:59;;;;;;;8.02;3.85;;;;;;;;;;5059968;28;20535;-68
2022/09/01 10:07:25;;;;;;;5.53;3.35;;;;;;;;;;5062786;28;20119;-68
2022/09/01 10:09:53;;;;;;;9.10;3.63;;;;;;;;;;5079087;28;20047;-68
2022/09/01 10:12:20;;;;;;;5.35;3.17;;;;;;;;;;5066271;28;20066;-67
2022/09/01 10:14:50;;;;;;;8.02;3.63;;;;;;;;;;5054612;28;21491;-67
2022/09/01 10:17:29;;;;;;;5.35;3.20;;;;;;;;;;5054772;28;20113;-68
2022/09/01 10:19:57;;;;;;;7.88;3.17;;;;;;;;;;5054319;28;20037;-68
2022/09/01 10:22:25;;;;;;;7.55;3.28;;;;;;;;;;5062166;28;20044;-68
2022/09/01 10:24:51;;;;;;;7.43;3.85;;;;;;;;;;5060914;28;20041;-68
2022/09/01 10:27:20;;;;;;;6.85;3.80;;;;;;;;;;5046700;28;20063;-68
2022/09/01 10:29:50;;;;;;;6.50;3.47;;;;;;;;;;5044880;28;20167;-68
2022/09/01 10:32:22;;;;;;;8.00;3.47;;;;;;;;;;5060268;28;20062;-67
2022/09/01 10:34:49;;;;;;;8.02;3.63;;;;;;;;;;5051258;28;20150;-67
2022/09/01 10:37:16;;;;;;;8.88;3.20;;;;;;;;;;5062060;28;20068;-67
2022/09/01 10:40:09;;;;;;;6.97;3.45;;;;;;;;;;5060772;28;20048;-68
2022/09/01 10:42:35;;;;;;;9.80;3.88;;;;;;;;;;5027375;28;20052;-67
2022/09/01 10:45:02;;;;;;;9.30;4.10;;;;;;;;;;5059473;28;20050;-67
2022/09/01 10:47:32;;;;;;;7.88;3.42;;;;;;;;;;5058736;28;20090;-67
2022/09/01 10:50:02;;;;;;;6.97;3.42;;;;;;;;;;5058070;28;20040;-67
2022/09/01 10:52:41;;;;;;;7.00;3.85;;;;;;;;;;5058824;28;20040;-67
2022/09/01 10:55:10;;;;;;;7.88;3.60;;;;;;;;;;5058893;28;20048;-67
2022/09/01 10:57:41;;;;;;;8.20;3.60;;;;;;;;;;5057217;28;20040;-67
2022/09/01 11:00:20;;;;;;;6.30;3.47;;;;;;;;;;5064579;28;20056;-67
2022/09/01 11:03:05;;;;;;;8.98;3.53;;;;;;;;;;5045322;28;20056;-67
2022/09/01 11:06:04;;;;;;;6.43;3.50;;;;;;;;;;5049996;28;20535;-66
2022/09/01 11:08:30;;;;;;;5.75;3.33;;;;;;;;;;5025588;28;20083;-66
2022/09/01 11:11:01;;;;;;;7.53;3.58;;;;;;;;;;5051129;28;20134;-67
2022/09/01 11:13:31;;;;;;;7.00;3.63;;;;;;;;;;5061246;28;20035;-67
2022/09/01 11:16:18;;;;;;;5.75;3.42;;;;;;;;;;5060951;28;20032;-66
2022/09/01 11:18:45;;;;;;;6.18;3.55;;;;;;;;;;5063409;28;20060;-67
2022/09/01 11:21:26;;;;;;;6.97;3.63;;;;;;;;;;5064945;28;20128;-67
2022/09/01 11:24:12;;;;;;;5.70;3.45;;;;;;;;;;5058186;28;20056;-67
2022/09/01 11:26:46;;;;;;;8.05;3.70;;;;;;;;;;5061865;28;20043;-67
2022/09/01 11:29:31;;;;;;;9.10;3.65;;;;;;;;;;5064628;27;20047;-66
2022/09/01 11:31:58;;;;;;;11.30;4.40;;;;;;;;;;5045377;28;20044;-67
2022/09/01 11:34:27;;;;;;;7.95;3.80;;;;;;;;;;5044622;28;20048;-68
2022/09/01 11:36:57;;;;;;;7.35;3.47;;;;;;;;;;5052464;28;20482;-68
2022/09/01 11:39:40;;;;;;;6.82;3.63;;;;;;;;;;5042526;28;20033;-69
2022/09/01 11:42:13;;;;;;;6.33;3.70;;;;;;;;;;5047590;28;20041;-69
2022/09/01 11:44:53;;;;;;;8.68;3.78;;;;;;;;;;5054696;28;20285;-69
2022/09/01 11:47:36;;;;;;;5.97;3.50;;;;;;;;;;5043663;28;20570;-68
2022/09/01 11:50:21;;;;;;;5.97;3.50;;;;;;;;;;5056090;28;20044;-68
2022/09/01 11:53:02;;;;;;;7.50;3.67;;;;;;;;;;5049980;28;20079;-68
2022/09/01 11:55:51;;;;;;;9.63;3.97;;;;;;;;;;5060017;28;20036;-68
2022/09/01 11:58:27;;;;;;;7.43;3.38;;;;;;;;;;5055287;28;20044;-68
2022/09/01 12:00:55;;;;;;;8.65;3.60;;;;;;;;;;5043611;28;20679;-67
2022/09/01 12:03:27;;;;;;;6.95;4.10;;;;;;;;;;5043495;28;20544;-66
2022/09/01 12:05:59;;;;;;;7.53;3.70;;;;;;;;;;5054031;28;20489;-67
2022/09/01 12:08:28;;;;;;;7.93;3.83;;;;;;;;;;5058903;28;21845;-67
2022/09/01 12:11:11;;;;;;;8.63;3.75;;;;;;;;;;5059825;28;20047;-67
2022/09/01 12:13:39;;;;;;;6.28;3.40;;;;;;;;;;5059315;28;20043;-68
2022/09/01 12:16:08;;;;;;;7.40;3.70;;;;;;;;;;5059584;28;20622;-67
2022/09/01 12:18:44;;;;;;;6.65;3.88;;;;;;;;;;5058917;28;20083;-68
2022/09/01 12:21:24;;;;;;;6.30;3.85;;;;;;;;;;5059392;28;20046;-68
2022/09/01 12:23:51;;;;;;;6.80;3.53;;;;;;;;;;5053804;28;20049;-68
2022/09/01 12:26:19;;;;;;;10.18;3.90;;;;;;;;;;5045094;28;20057;-67
2022/09/01 12:28:48;;;;;;;8.75;4.10;;;;;;;;;;5073613;28;20036;-67
2022/09/01 12:31:25;;;;;;;7.30;3.40;;;;;;;;;;5048876;28;20511;-68
2022/09/01 12:33:53;;;;;;;7.15;3.85;;;;;;;;;;5055556;28;20174;-67
2022/09/01 12:36:27;;;;;;;5.80;3.80;;;;;;;;;;5062638;28;20040;-67
2022/09/01 12:38:55;;;;;;;6.63;3.78;;;;;;;;;;5062730;28;20109;-67
2022/09/01 12:41:24;;;;;;;7.22;3.88;;;;;;;;;;5052959;28;20075;-67
2022/09/01 12:43:51;;;;;;;9.00;3.85;;;;;;;;;;5049923;28;20131;-68
2022/09/01 12:46:36;;;;;;;7.28;3.70;;;;;;;;;;5059389;28;20040;-68
2022/09/01 12:49:21;;;;;;;7.70;4.07;;;;;;;;;;5061844;28;20040;-68
2022/09/01 12:51:48;;;;;;;7.40;3.65;;;;;;;;;;5041716;28;20151;-65
2022/09/01 12:54:15;;;;;;;7.43;3.60;;;;;;;;;;5050209;28;20068;-64
2022/09/01 12:56:47;;;;;;;9.25;3.97;;;;;;;;;;5059366;28;20040;-68
2022/09/01 12:59:20;;;;;;;8.88;3.95;;;;;;;;;;5059757;28;20521;-68
2022/09/01 13:01:47;;;;;;;8.40;4.10;;;;;;;;;;5042038;28;20115;-68
2022/09/01 13:04:15;;;;;;;8.98;4.30;;;;;;;;;;5051265;28;20052;-69
2022/09/01 13:06:42;;;;;;;6.35;3.95;;;;;;;;;;5059128;28;20405;-68
2022/09/01 13:09:09;;;;;;;9.18;4.18;;;;;;;;;;5042130;28;21071;-68
2022/09/01 13:11:35;;;;;;;17.63;4.28;;;;;;;;;;5038858;28;20036;-68
2022/09/01 13:14:02;;;;;;;8.27;4.47;;;;;;;;;;5051049;28;20040;-67
2022/09/01 13:16:28;;;;;;;9.35;4.60;;;;;;;;;;5062793;28;20544;-68
2022/09/01 13:18:55;;;;;;;9.52;4.63;;;;;;;;;;5062403;28;20043;-67
2022/09/01 13:21:21;;;;;;;10.02;4.50;;;;;;;;;;5062266;28;20075;-68
2022/09/01 13:23:49;;;;;;;12.65;4.70;;;;;;;;;;5062699;28;20142;-68
2022/09/01 13:26:15;;;;;;;8.48;4.70;;;;;;;;;;5044197;28;20115;-67
2022/09/01 13:28:42;;;;;;;7.72;4.07;;;;;;;;;;5049312;28;20063;-67
2022/09/01 13:31:09;;;;;;;10.65;4.63;;;;;;;;;;5061821;28;20039;-67
2022/09/01 13:33:35;;;;;;;9.57;4.32;;;;;;;;;;5058662;27;20045;-65
2022/09/01 13:36:03;;;;;;;9.68;4.65;;;;;;;;;;5058937;28;20754;-67
2022/09/01 13:38:30;;;;;;;10.18;4.88;;;;;;;;;;5058367;28;20041;-68
2022/09/01 13:40:59;;;;;;;8.43;4.40;;;;;;;;;;5058516;28;20032;-67
2022/09/01 13:43:26;;;;;;;7.93;4.10;;;;;;;;;;5059585;28;20075;-66
2022/09/01 13:45:53;;;;;;;10.68;4.95;;;;;;;;;;5062448;28;20032;-64
2022/09/01 13:48:20;;;;;;;9.18;4.50;;;;;;;;;;5059700;28;20048;-65
2022/09/01 13:50:51;;;;;;;9.10;4.70;;;;;;;;;;5061018;28;20062;-65
2022/09/01 13:53:18;;;;;;;13.05;4.85;;;;;;;;;;5061277;28;20041;-67
2022/09/01 13:55:45;;;;;;;10.00;4.75;;;;;;;;;;5049889;28;20044;-67
2022/09/01 13:58:13;;;;;;;9.57;4.53;;;;;;;;;;5040827;28;20517;-67
2022/09/01 14:00:40;;;;;;;13.60;4.78;;;;;;;;;;5036565;28;20094;-67
2022/09/01 14:03:09;;;;;;;10.57;4.85;;;;;;;;;;5039384;28;20041;-67
2022/09/01 14:05:37;;;;;;;12.25;5.28;;;;;;;;;;5037538;28;20037;-68
2022/09/01 14:08:04;;;;;;;12.07;5.03;;;;;;;;;;5039114;28;20095;-67
2022/09/01 14:10:31;;;;;;;12.05;4.60;;;;;;;;;;5025960;28;20124;-67
2022/09/01 14:12:58;;;;;;;14.13;4.93;;;;;;;;;;5033987;28;20120;-67
2022/09/01 14:15:29;;;;;;;10.63;4.85;;;;;;;;;;5034093;28;20041;-67
2022/09/01 14:17:56;;;;;;;17.23;6.03;;;;;;;;;;5028888;28;20093;-67
2022/09/01 14:20:30;;;;;;;14.10;5.85;;;;;;;;;;5039623;28;20218;-68
2022/09/01 14:22:57;;;;;;;11.98;5.20;;;;;;;;;;5055264;28;20064;-67
2022/09/01 14:25:24;;;;;;;16.35;4.60;;;;;;;;;;5077884;28;20037;-68
2022/09/01 14:27:56;;;;;;;11.25;4.90;;;;;;;;;;5045491;28;20044;-66
2022/09/01 14:30:24;;;;;;;8.35;4.20;;;;;;;;;;5063450;28;20386;-67
2022/09/01 14:32:51;;;;;;;9.95;4.28;;;;;;;;;;5058492;28;20390;-66
2022/09/01 14:35:23;;;;;;;16.23;4.53;;;;;;;;;;5064031;28;20037;-67
2022/09/01 14:37:51;;;;;;;10.10;4.00;;;;;;;;;;5052373;28;20072;-67
2022/09/01 14:40:19;;;;;;;11.77;3.70;;;;;;;;;;5072332;28;20048;-67
2022/09/01 14:42:52;;;;;;;14.10;3.80;;;;;;;;;;5063018;28;20098;-68
2022/09/01 14:45:20;;;;;;;11.32;4.35;;;;;;;;;;5064853;28;20581;-68
2022/09/01 14:47:48;;;;;;;9.40;4.28;;;;;;;;;;5048802;28;20048;-68
2022/09/01 14:50:25;;;;;;;14.63;3.88;;;;;;;;;;5039853;28;20045;-68
2022/09/01 14:52:53;;;;;;;10.02;3.70;;;;;;;;;;5041818;28;20029;-68
2022/09/01 14:55:24;;;;;;;16.15;3.88;;;;;;;;;;5023109;28;20044;-68
2022/09/01 14:57:51;;;;;;;9.45;3.70;;;;;;;;;;5023380;28;20052;-68
2022/09/01 15:00:18;;;;;;;11.45;4.10;;;;;;;;;;5025240;28;20049;-68
2022/09/01 15:02:45;;;;;;;18.02;3.80;;;;;;;;;;5024173;28;20115;-68